createdAt,value
2023-06-30T00:00:38.297Z,34.04
2023-06-30T00:01:38.367Z,34.07
2023-06-30T00:02:38.476Z,34.05
2023-06-30T00:03:38.504Z,34.20
2023-06-30T00:04:38.487Z,34.21
2023-06-30T00:05:38.521Z,34.31
2023-06-30T00:06:38.548Z,34.31
2023-06-30T00:07:38.895Z,34.31
2023-06-30T00:08:38.654Z,34.32
2023-06-30T00:09:38.669Z,34.30
2023-06-30T00:10:38.732Z,34.31
2023-06-30T00:11:38.753Z,34.28
2023-06-30T00:12:38.796Z,34.23
2023-06-30T00:13:38.827Z,34.25
2023-06-30T00:14:38.853Z,34.20
2023-06-30T00:15:38.935Z,34.18
2023-06-30T00:16:38.979Z,34.28
2023-06-30T00:17:39.059Z,34.24
2023-06-30T00:18:39.041Z,34.27
2023-06-30T00:19:39.092Z,34.28
2023-06-30T00:20:39.140Z,34.23
2023-06-30T00:21:39.169Z,34.23
2023-06-30T00:22:39.184Z,34.27
2023-06-30T00:23:39.264Z,34.27
2023-06-30T00:24:39.287Z,34.32
2023-06-30T00:25:39.326Z,34.31
2023-06-30T00:26:39.390Z,34.32
2023-06-30T00:27:39.415Z,34.41
2023-06-30T00:28:39.446Z,34.43
2023-06-30T00:29:39.468Z,34.45
2023-06-30T00:30:39.540Z,34.45
2023-06-30T00:31:39.657Z,34.51
2023-06-30T00:32:39.666Z,34.45
2023-06-30T00:33:39.653Z,34.52
2023-06-30T00:34:39.703Z,34.53
2023-06-30T00:35:39.754Z,34.51
2023-06-30T00:36:39.770Z,34.53
2023-06-30T00:37:39.824Z,34.48
2023-06-30T00:38:39.955Z,34.61
2023-06-30T00:39:39.891Z,34.58
2023-06-30T00:40:39.945Z,34.64
2023-06-30T00:41:39.989Z,34.66
2023-06-30T00:42:40.033Z,34.68
2023-06-30T00:43:40.069Z,34.63
2023-06-30T00:44:40.130Z,34.72
2023-06-30T00:45:40.164Z,34.76
2023-06-30T00:46:40.237Z,34.78
2023-06-30T00:47:40.315Z,34.78
2023-06-30T00:48:40.276Z,34.72
2023-06-30T00:49:40.314Z,34.75
2023-06-30T00:50:40.385Z,34.73
2023-06-30T00:51:40.413Z,34.75
2023-06-30T00:52:40.457Z,34.74
2023-06-30T00:53:40.507Z,34.77
2023-06-30T00:54:40.552Z,34.79
2023-06-30T00:55:40.577Z,34.78
2023-06-30T00:56:40.607Z,34.81
2023-06-30T00:57:40.675Z,34.82
2023-06-30T00:58:40.707Z,34.85
2023-06-30T00:59:40.753Z,34.83
2023-06-30T01:00:40.801Z,34.81
2023-06-30T01:01:40.826Z,34.82
2023-06-30T01:02:40.949Z,34.86
2023-06-30T01:03:41.007Z,34.93
2023-06-30T01:04:41.044Z,34.94
2023-06-30T01:05:41.043Z,34.96
2023-06-30T01:06:41.044Z,34.92
2023-06-30T01:07:41.141Z,34.86
2023-06-30T01:08:41.113Z,34.90
2023-06-30T01:09:41.186Z,34.95
2023-06-30T01:10:41.224Z,34.94
2023-06-30T01:11:41.256Z,34.95
2023-06-30T01:12:41.293Z,34.94
2023-06-30T01:13:41.351Z,35.02
2023-06-30T01:14:41.398Z,34.95
2023-06-30T01:15:41.418Z,34.95
2023-06-30T01:16:41.541Z,34.98
2023-06-30T01:17:41.610Z,35.01
2023-06-30T01:18:41.546Z,35.07
2023-06-30T01:19:41.565Z,35.08
2023-06-30T01:20:41.617Z,35.10
2023-06-30T01:21:41.689Z,35.07
2023-06-30T01:22:41.702Z,35.11
2023-06-30T01:23:41.761Z,35.03
2023-06-30T01:24:41.834Z,35.03
2023-06-30T01:25:41.813Z,35.06
2023-06-30T01:26:41.865Z,35.04
2023-06-30T01:27:41.899Z,35.08
2023-06-30T01:28:41.963Z,35.12
2023-06-30T01:29:42.019Z,35.14
2023-06-30T01:30:42.083Z,35.13
2023-06-30T01:31:42.117Z,35.13
2023-06-30T01:32:42.176Z,35.12
2023-06-30T01:33:42.178Z,35.13
2023-06-30T01:34:42.234Z,35.19
2023-06-30T01:35:42.315Z,35.22
2023-06-30T01:36:42.313Z,35.24
2023-06-30T01:37:42.340Z,35.29
2023-06-30T01:38:42.400Z,35.24
2023-06-30T01:39:42.446Z,35.26
2023-06-30T01:40:42.492Z,35.28
2023-06-30T01:41:42.516Z,35.26
2023-06-30T01:42:42.550Z,35.28
2023-06-30T01:43:42.617Z,35.34
2023-06-30T01:44:42.647Z,35.38
2023-06-30T01:45:42.767Z,35.39
2023-06-30T01:46:42.870Z,35.39
2023-06-30T01:47:42.767Z,35.46
2023-06-30T01:48:42.831Z,35.40
2023-06-30T01:49:42.850Z,35.54
2023-06-30T01:50:42.875Z,35.47
2023-06-30T01:51:42.908Z,35.53
2023-06-30T01:52:42.995Z,35.48
2023-06-30T01:53:43.012Z,35.48
2023-06-30T01:54:43.059Z,35.45
2023-06-30T01:55:43.145Z,35.48
2023-06-30T01:56:43.158Z,35.47
2023-06-30T01:57:43.177Z,35.43
2023-06-30T01:58:43.242Z,35.51
2023-06-30T01:59:43.293Z,35.45
2023-06-30T02:00:43.304Z,35.53
2023-06-30T02:01:43.358Z,35.48
2023-06-30T02:02:43.472Z,35.55
2023-06-30T02:03:43.513Z,35.55
2023-06-30T02:04:43.447Z,35.53
2023-06-30T02:05:43.776Z,35.60
2023-06-30T02:06:43.550Z,35.60
2023-06-30T02:07:43.583Z,35.57
2023-06-30T02:08:43.631Z,35.60
2023-06-30T02:09:48.460Z,35.57
2023-06-30T02:10:44.687Z,35.67
2023-06-30T02:11:43.653Z,35.64
2023-06-30T02:12:43.638Z,35.68
2023-06-30T02:13:43.655Z,35.65
2023-06-30T02:14:43.616Z,35.67
2023-06-30T02:15:43.868Z,35.66
2023-06-30T02:16:43.676Z,35.64
2023-06-30T02:17:43.666Z,35.62
2023-06-30T02:18:43.604Z,35.64
2023-06-30T02:19:43.581Z,35.76
2023-06-30T02:20:43.613Z,35.74
2023-06-30T02:21:43.586Z,35.76
2023-06-30T02:22:43.587Z,35.76
2023-06-30T02:23:43.572Z,35.78
2023-06-30T02:24:43.642Z,35.71
2023-06-30T02:25:43.973Z,35.73
2023-06-30T02:26:43.734Z,35.78
2023-06-30T02:27:43.801Z,35.74
2023-06-30T02:28:43.807Z,35.78
2023-06-30T02:29:43.868Z,35.76
2023-06-30T02:30:43.916Z,35.81
2023-06-30T02:31:44.020Z,35.76
2023-06-30T02:32:44.017Z,35.81
2023-06-30T02:33:44.044Z,35.82
2023-06-30T02:34:44.104Z,35.81
2023-06-30T02:35:44.547Z,35.86
2023-06-30T02:36:44.176Z,35.93
2023-06-30T02:37:44.224Z,35.92
2023-06-30T02:38:44.273Z,35.96
2023-06-30T02:39:44.332Z,35.91
2023-06-30T02:40:44.357Z,35.93
2023-06-30T02:41:44.424Z,35.96
2023-06-30T02:42:44.464Z,35.89
2023-06-30T02:43:44.457Z,35.92
2023-06-30T02:44:44.534Z,35.94
2023-06-30T02:45:45.017Z,35.98
2023-06-30T02:46:44.633Z,36.01
2023-06-30T02:47:44.755Z,36.05
2023-06-30T02:48:44.715Z,36.11
2023-06-30T02:49:44.778Z,36.07
2023-06-30T02:50:44.799Z,36.12
2023-06-30T02:51:44.851Z,36.05
2023-06-30T02:52:44.912Z,36.01
2023-06-30T02:53:44.954Z,36.01
2023-06-30T02:54:44.988Z,35.98
2023-06-30T02:55:45.328Z,36.01
2023-06-30T02:56:45.080Z,35.99
2023-06-30T02:57:45.119Z,36.04
2023-06-30T02:58:45.169Z,36.07
2023-06-30T02:59:45.229Z,36.09
2023-06-30T03:00:45.276Z,36.10
2023-06-30T03:01:45.417Z,36.07
2023-06-30T03:02:45.394Z,36.10
2023-06-30T03:03:45.534Z,36.15
2023-06-30T03:04:45.432Z,36.17
2023-06-30T03:05:45.682Z,36.11
2023-06-30T03:06:45.563Z,36.11
2023-06-30T03:07:45.573Z,36.15
2023-06-30T03:08:45.618Z,36.16
2023-06-30T03:09:45.669Z,36.23
2023-06-30T03:10:45.708Z,36.26
2023-06-30T03:11:45.778Z,36.27
2023-06-30T03:12:45.788Z,36.25
2023-06-30T03:13:45.830Z,36.26
2023-06-30T03:14:45.923Z,36.28
2023-06-30T03:15:46.251Z,36.26
2023-06-30T03:16:46.106Z,36.25
2023-06-30T03:17:46.066Z,36.20
2023-06-30T03:18:46.101Z,36.20
2023-06-30T03:19:46.136Z,36.27
2023-06-30T03:20:46.197Z,36.27
2023-06-30T03:21:46.239Z,36.28
2023-06-30T03:22:46.281Z,36.35
2023-06-30T03:23:46.339Z,36.34
2023-06-30T03:24:46.366Z,36.31
2023-06-30T03:25:46.820Z,36.38
2023-06-30T03:26:46.467Z,36.40
2023-06-30T03:27:46.517Z,36.33
2023-06-30T03:28:46.576Z,36.43
2023-06-30T03:29:46.602Z,36.39
2023-06-30T03:30:46.712Z,36.38
2023-06-30T03:31:46.719Z,36.36
2023-06-30T03:32:46.806Z,36.42
2023-06-30T03:33:46.810Z,36.42
2023-06-30T03:34:46.892Z,36.44
2023-06-30T03:35:47.142Z,36.45
2023-06-30T03:36:46.960Z,36.48
2023-06-30T03:37:47.032Z,36.45
2023-06-30T03:38:47.068Z,36.47
2023-06-30T03:39:47.092Z,36.49
2023-06-30T03:40:47.209Z,36.42
2023-06-30T03:41:47.216Z,36.47
2023-06-30T03:42:47.252Z,36.47
2023-06-30T03:43:47.304Z,36.45
2023-06-30T03:44:47.329Z,36.48
2023-06-30T03:45:47.726Z,36.51
2023-06-30T03:46:47.484Z,36.51
2023-06-30T03:47:47.584Z,36.55
2023-06-30T03:48:47.531Z,36.54
2023-06-30T03:49:47.578Z,36.58
2023-06-30T03:50:47.606Z,36.52
2023-06-30T03:51:47.656Z,36.48
2023-06-30T03:52:47.695Z,36.52
2023-06-30T03:53:47.748Z,36.52
2023-06-30T03:54:47.797Z,36.47
2023-06-30T03:55:48.016Z,36.52
2023-06-30T03:56:47.921Z,36.55
2023-06-30T03:57:47.958Z,36.58
2023-06-30T03:58:48.043Z,36.61
2023-06-30T03:59:48.077Z,36.60
2023-06-30T04:00:48.133Z,36.64
2023-06-30T04:01:48.195Z,36.59
2023-06-30T04:02:48.264Z,36.55
2023-06-30T04:03:48.432Z,36.58
2023-06-30T04:04:48.354Z,36.60
2023-06-30T04:05:48.371Z,36.56
2023-06-30T04:06:48.411Z,36.61
2023-06-30T04:07:48.603Z,36.59
2023-06-30T04:08:48.537Z,36.64
2023-06-30T04:09:48.613Z,36.64
2023-06-30T04:10:48.660Z,36.65
2023-06-30T04:11:48.674Z,36.65
2023-06-30T04:12:48.744Z,36.67
2023-06-30T04:13:48.797Z,36.65
2023-06-30T04:14:48.834Z,36.67
2023-06-30T04:15:48.883Z,36.70
2023-06-30T04:16:48.996Z,36.68
2023-06-30T04:17:49.046Z,36.68
2023-06-30T04:18:49.024Z,36.68
2023-06-30T04:19:49.082Z,36.68
2023-06-30T04:20:49.129Z,36.68
2023-06-30T04:21:49.222Z,36.68
2023-06-30T04:22:49.230Z,36.74
2023-06-30T04:23:49.289Z,36.63
2023-06-30T04:24:49.361Z,36.68
2023-06-30T04:25:49.401Z,36.72
2023-06-30T04:26:49.434Z,36.69
2023-06-30T04:27:49.491Z,36.68
2023-06-30T04:28:49.522Z,36.68
2023-06-30T04:29:49.576Z,36.65
2023-06-30T04:30:49.646Z,36.68
2023-06-30T04:31:49.689Z,36.69
2023-06-30T04:32:49.824Z,36.64
2023-06-30T04:33:49.792Z,36.64
2023-06-30T04:34:49.846Z,36.69
2023-06-30T04:35:50.010Z,36.67
2023-06-30T04:36:49.921Z,36.73
2023-06-30T04:37:49.989Z,36.77
2023-06-30T04:38:50.104Z,36.75
2023-06-30T04:39:50.143Z,36.76
2023-06-30T04:40:50.150Z,36.77
2023-06-30T04:41:50.207Z,36.76
2023-06-30T04:42:50.240Z,36.76
2023-06-30T04:43:50.284Z,36.73
2023-06-30T04:44:50.348Z,36.75
2023-06-30T04:45:50.443Z,36.72
2023-06-30T04:46:50.433Z,36.75
2023-06-30T04:47:50.607Z,36.79
2023-06-30T04:48:50.529Z,36.79
2023-06-30T04:49:50.597Z,36.80
2023-06-30T04:50:50.632Z,36.76
2023-06-30T04:51:50.725Z,36.77
2023-06-30T04:52:50.759Z,36.77
2023-06-30T04:53:50.789Z,36.79
2023-06-30T04:54:50.884Z,36.83
2023-06-30T04:55:50.904Z,36.76
2023-06-30T04:56:50.975Z,36.79
2023-06-30T04:57:51.007Z,36.76
2023-06-30T04:58:51.056Z,36.77
2023-06-30T04:59:51.120Z,36.77
2023-06-30T05:00:58.670Z,36.77
2023-06-30T05:01:51.304Z,36.81
2023-06-30T05:02:51.258Z,36.80
2023-06-30T05:03:51.231Z,36.89
2023-06-30T05:04:51.166Z,36.88
2023-06-30T05:05:51.193Z,36.88
2023-06-30T05:06:51.136Z,36.87
2023-06-30T05:07:51.142Z,36.86
2023-06-30T05:08:51.096Z,36.85
2023-06-30T05:09:51.101Z,36.84
2023-06-30T05:10:51.087Z,36.92
2023-06-30T05:11:51.121Z,36.95
2023-06-30T05:12:51.079Z,36.95
2023-06-30T05:13:51.077Z,36.89
2023-06-30T05:14:51.048Z,36.91
2023-06-30T05:15:51.258Z,36.88
2023-06-30T05:16:51.129Z,36.98
2023-06-30T05:17:51.113Z,36.92
2023-06-30T05:18:51.110Z,36.92
2023-06-30T05:19:51.140Z,36.89
2023-06-30T05:20:51.193Z,36.89
2023-06-30T05:21:51.284Z,36.92
2023-06-30T05:22:51.308Z,36.95
2023-06-30T05:23:51.361Z,36.93
2023-06-30T05:24:51.435Z,36.93
2023-06-30T05:25:51.465Z,36.89
2023-06-30T05:26:51.543Z,36.88
2023-06-30T05:27:51.556Z,36.83
2023-06-30T05:29:00.497Z,36.88
2023-06-30T05:29:52.617Z,36.95
2023-06-30T05:30:51.600Z,36.96
2023-06-30T05:31:51.958Z,36.98
2023-06-30T05:32:52.378Z,37.00
2023-06-30T05:33:51.584Z,37.65
2023-06-30T05:34:51.559Z,38.36
2023-06-30T05:35:51.574Z,39.65
2023-06-30T05:36:52.790Z,40.13
2023-06-30T05:37:51.559Z,40.62
2023-06-30T05:38:51.564Z,41.05
2023-06-30T05:39:51.574Z,41.57
2023-06-30T05:40:51.529Z,42.40
2023-06-30T05:41:51.823Z,42.68
2023-06-30T05:42:51.508Z,43.05
2023-06-30T05:43:51.580Z,43.46
2023-06-30T05:44:51.530Z,44.07
2023-06-30T05:45:59.052Z,44.67
2023-06-30T05:46:51.901Z,44.46
2023-06-30T05:47:51.584Z,44.31
2023-06-30T05:48:51.509Z,44.53
2023-06-30T05:49:51.592Z,44.63
2023-06-30T05:50:51.505Z,44.87
2023-06-30T05:51:51.513Z,44.68
2023-06-30T05:52:51.528Z,44.97
2023-06-30T05:53:51.516Z,44.40
2023-06-30T05:54:51.504Z,44.24
2023-06-30T05:55:51.493Z,44.17
2023-06-30T05:56:51.861Z,43.94
2023-06-30T05:57:51.454Z,43.89
2023-06-30T05:58:51.470Z,43.86
2023-06-30T05:59:51.441Z,43.72
2023-06-30T06:00:51.435Z,43.70
2023-06-30T06:01:51.791Z,43.75
2023-06-30T06:02:51.568Z,43.66
2023-06-30T06:03:51.735Z,43.65
2023-06-30T06:04:51.585Z,43.56
2023-06-30T06:05:51.826Z,43.53
2023-06-30T06:06:51.869Z,43.56
2023-06-30T06:07:51.388Z,43.46
2023-06-30T06:08:51.467Z,43.46
2023-06-30T06:09:51.406Z,43.51
2023-06-30T06:10:52.339Z,43.33
2023-06-30T06:11:51.371Z,43.46
2023-06-30T06:12:51.392Z,43.45
2023-06-30T06:13:51.359Z,43.66
2023-06-30T06:14:51.355Z,43.66
2023-06-30T06:15:51.319Z,43.70
2023-06-30T06:16:51.381Z,43.79
2023-06-30T06:17:51.421Z,43.82
2023-06-30T06:18:51.446Z,43.97
2023-06-30T06:19:51.368Z,44.09
2023-06-30T06:20:51.382Z,44.19
2023-06-30T06:21:51.363Z,44.32
2023-06-30T06:22:51.859Z,44.41
2023-06-30T06:23:51.396Z,44.51
2023-06-30T06:24:51.478Z,44.51
2023-06-30T06:25:51.554Z,44.55
2023-06-30T06:26:51.391Z,44.50
2023-06-30T06:27:51.863Z,44.45
2023-06-30T06:28:51.470Z,44.54
2023-06-30T06:29:51.485Z,44.58
2023-06-30T06:30:51.579Z,44.56
2023-06-30T06:31:51.565Z,44.67
2023-06-30T06:32:51.889Z,44.68
2023-06-30T06:33:53.296Z,44.64
2023-06-30T06:34:51.614Z,44.64
2023-06-30T06:35:51.619Z,44.68
2023-06-30T06:36:51.609Z,44.64
2023-06-30T06:37:51.565Z,44.67
2023-06-30T06:38:51.592Z,44.74
2023-06-30T06:39:51.582Z,44.73
2023-06-30T06:40:51.603Z,44.75
2023-06-30T06:41:51.553Z,44.80
2023-06-30T06:42:51.838Z,44.90
2023-06-30T06:43:51.539Z,44.94
2023-06-30T06:44:51.607Z,45.04
2023-06-30T06:45:51.527Z,45.03
2023-06-30T06:46:51.510Z,45.10
2023-06-30T06:47:51.928Z,45.15
2023-06-30T06:48:51.562Z,45.71
2023-06-30T06:49:51.515Z,45.99
2023-06-30T06:50:51.528Z,45.93
2023-06-30T06:51:51.528Z,46.69
2023-06-30T06:52:51.861Z,46.77
2023-06-30T06:53:51.485Z,46.79
2023-06-30T06:54:51.469Z,46.77
2023-06-30T06:55:51.516Z,46.68
2023-06-30T06:56:51.460Z,47.68
2023-06-30T06:57:51.443Z,47.51
2023-06-30T06:58:51.488Z,47.43
2023-06-30T06:59:51.761Z,47.22
2023-06-30T07:00:51.439Z,47.22
2023-06-30T07:01:51.465Z,47.73
2023-06-30T07:02:51.489Z,46.35
2023-06-30T07:03:51.443Z,46.47
2023-06-30T07:04:51.402Z,45.78
2023-06-30T07:05:51.410Z,45.82
2023-06-30T07:06:51.396Z,45.61
2023-06-30T07:07:51.893Z,45.52
2023-06-30T07:08:51.383Z,45.61
2023-06-30T07:09:51.371Z,45.33
2023-06-30T07:10:51.462Z,45.35
2023-06-30T07:11:51.354Z,45.05
2023-06-30T07:12:51.378Z,45.50
2023-06-30T07:13:51.341Z,45.54
2023-06-30T07:14:51.345Z,45.38
2023-06-30T07:15:51.482Z,45.12
2023-06-30T07:16:51.360Z,44.81
2023-06-30T07:17:51.508Z,44.91
2023-06-30T07:18:51.306Z,44.73
2023-06-30T07:19:51.289Z,44.82
2023-06-30T07:20:51.306Z,44.50
2023-06-30T07:21:51.335Z,44.74
2023-06-30T07:22:51.284Z,44.50
2023-06-30T07:23:51.325Z,44.15
2023-06-30T07:24:51.356Z,44.03
2023-06-30T07:25:51.436Z,44.13
2023-06-30T07:26:51.481Z,43.90
2023-06-30T07:27:51.557Z,43.96
2023-06-30T07:28:51.706Z,43.79
2023-06-30T07:29:51.676Z,43.77
2023-06-30T07:30:51.710Z,43.74
2023-06-30T07:31:51.747Z,44.05
2023-06-30T07:32:51.875Z,43.57
2023-06-30T07:33:51.872Z,43.68
2023-06-30T07:34:51.924Z,43.87
2023-06-30T07:35:51.978Z,44.09
2023-06-30T07:36:52.018Z,44.08
2023-06-30T07:37:52.370Z,44.10
2023-06-30T07:38:52.181Z,44.07
2023-06-30T07:39:52.209Z,44.20
2023-06-30T07:40:56.539Z,44.16
2023-06-30T07:41:52.306Z,44.08
2023-06-30T07:42:52.257Z,44.11
2023-06-30T07:43:52.241Z,44.16
2023-06-30T07:44:52.231Z,44.09
2023-06-30T07:45:52.255Z,44.20
2023-06-30T07:46:52.237Z,44.23
2023-06-30T07:47:52.333Z,44.10
2023-06-30T07:48:52.294Z,44.31
2023-06-30T07:49:52.194Z,44.65
2023-06-30T07:51:06.884Z,44.50
2023-06-30T07:51:53.189Z,44.45
2023-06-30T07:52:52.175Z,44.39
2023-06-30T07:53:52.220Z,44.35
2023-06-30T07:54:52.141Z,44.38
2023-06-30T07:55:52.152Z,44.21
2023-06-30T07:56:52.116Z,44.00
2023-06-30T07:57:52.411Z,43.97
2023-06-30T07:58:52.152Z,43.68
2023-06-30T07:59:52.164Z,43.89
2023-06-30T08:00:52.195Z,44.04
2023-06-30T08:01:52.115Z,43.89
2023-06-30T08:02:52.308Z,43.84
2023-06-30T08:03:52.327Z,43.84
2023-06-30T08:04:52.165Z,43.98
2023-06-30T08:05:52.404Z,43.66
2023-06-30T08:06:52.101Z,43.67
2023-06-30T08:07:52.203Z,43.67
2023-06-30T08:08:52.131Z,43.53
2023-06-30T08:09:52.163Z,43.34
2023-06-30T08:10:52.184Z,43.23
2023-06-30T08:11:52.290Z,43.44
2023-06-30T08:12:52.272Z,43.40
2023-06-30T08:13:52.352Z,42.93
2023-06-30T08:14:52.328Z,42.65
2023-06-30T08:15:52.532Z,42.63
2023-06-30T08:16:52.580Z,42.58
2023-06-30T08:17:57.465Z,42.60
2023-06-30T08:18:53.539Z,42.37
2023-06-30T08:19:52.545Z,42.70
2023-06-30T08:20:52.443Z,42.35
2023-06-30T08:21:52.488Z,42.27
2023-06-30T08:22:52.935Z,42.14
2023-06-30T08:23:52.473Z,42.14
2023-06-30T08:24:53.376Z,42.18
2023-06-30T08:25:52.543Z,41.96
2023-06-30T08:26:52.574Z,41.92
2023-06-30T08:27:52.935Z,41.91
2023-06-30T08:28:52.619Z,41.67
2023-06-30T08:29:52.619Z,41.60
2023-06-30T08:30:52.675Z,41.72
2023-06-30T08:31:52.676Z,41.58
2023-06-30T08:32:52.962Z,41.81
2023-06-30T08:33:52.679Z,41.55
2023-06-30T08:34:52.692Z,41.93
2023-06-30T08:35:52.712Z,41.75
2023-06-30T08:36:52.738Z,41.80
2023-06-30T08:37:54.202Z,41.62
2023-06-30T08:38:52.740Z,41.64
2023-06-30T08:39:52.704Z,41.81
2023-06-30T08:40:52.751Z,41.87
2023-06-30T08:41:52.743Z,41.91
2023-06-30T08:42:52.692Z,41.99
2023-06-30T08:43:52.716Z,42.17
2023-06-30T08:44:52.702Z,42.26
2023-06-30T08:45:52.796Z,42.02
2023-06-30T08:46:52.877Z,42.40
2023-06-30T08:47:52.883Z,42.60
2023-06-30T08:48:52.900Z,42.14
2023-06-30T08:49:52.949Z,41.97
2023-06-30T08:50:53.023Z,42.34
2023-06-30T08:51:53.051Z,42.40
2023-06-30T08:52:53.131Z,42.23
2023-06-30T08:53:53.404Z,42.05
2023-06-30T08:54:53.253Z,42.47
2023-06-30T08:55:53.305Z,42.27
2023-06-30T08:56:53.367Z,42.20
2023-06-30T08:57:53.491Z,42.27
2023-06-30T08:58:53.492Z,42.36
2023-06-30T08:59:53.624Z,41.88
2023-06-30T09:00:53.712Z,42.23
2023-06-30T09:01:53.690Z,42.55
2023-06-30T09:02:53.755Z,42.29
2023-06-30T09:03:54.002Z,42.22
2023-06-30T09:04:53.917Z,42.80
2023-06-30T09:05:53.954Z,42.42
2023-06-30T09:06:53.993Z,42.43
2023-06-30T09:07:54.020Z,42.33
2023-06-30T09:08:54.114Z,42.33
2023-06-30T09:09:54.158Z,42.16
2023-06-30T09:10:54.238Z,42.12
2023-06-30T09:11:54.275Z,41.97
2023-06-30T09:12:54.342Z,42.50
2023-06-30T09:13:54.430Z,42.79
2023-06-30T09:14:54.507Z,42.60
2023-06-30T09:15:54.549Z,42.89
2023-06-30T09:16:54.594Z,43.07
2023-06-30T09:17:54.623Z,42.82
2023-06-30T09:18:54.961Z,42.78
2023-06-30T09:19:54.816Z,43.34
2023-06-30T09:20:54.835Z,43.17
2023-06-30T09:21:54.852Z,42.70
2023-06-30T09:22:56.782Z,43.11
2023-06-30T09:23:55.446Z,42.51
2023-06-30T09:24:55.015Z,42.56
2023-06-30T09:25:55.146Z,42.75
2023-06-30T09:26:55.133Z,42.87
2023-06-30T09:27:55.234Z,43.02
2023-06-30T09:28:55.549Z,42.92
2023-06-30T09:29:55.446Z,42.88
2023-06-30T09:30:55.429Z,42.63
2023-06-30T09:31:55.521Z,42.26
2023-06-30T09:32:55.565Z,42.14
2023-06-30T09:33:55.530Z,42.13
2023-06-30T09:34:55.602Z,42.61
2023-06-30T09:35:55.578Z,43.18
2023-06-30T09:36:55.688Z,43.06
2023-06-30T09:37:55.680Z,43.77
2023-06-30T09:38:55.627Z,43.90
2023-06-30T09:39:55.661Z,44.15
2023-06-30T09:40:55.620Z,43.90
2023-06-30T09:41:55.669Z,44.15
2023-06-30T09:42:55.740Z,43.80
2023-06-30T09:43:55.797Z,43.59
2023-06-30T09:44:55.855Z,43.99
2023-06-30T09:45:55.931Z,43.94
2023-06-30T09:46:55.993Z,44.24
2023-06-30T09:47:56.190Z,43.82
2023-06-30T09:48:56.454Z,43.70
2023-06-30T09:49:56.171Z,43.44
2023-06-30T09:50:56.187Z,43.28
2023-06-30T09:51:56.244Z,42.95
2023-06-30T09:52:56.317Z,43.07
2023-06-30T09:53:56.433Z,42.82
2023-06-30T09:54:56.441Z,42.79
2023-06-30T09:55:56.509Z,43.01
2023-06-30T09:56:56.510Z,42.69
2023-06-30T09:57:56.589Z,42.67
2023-06-30T09:58:58.001Z,42.51
2023-06-30T09:59:56.947Z,42.58
2023-06-30T10:00:56.705Z,42.34
2023-06-30T10:01:56.799Z,42.30
2023-06-30T10:02:56.824Z,42.20
2023-06-30T10:03:57.074Z,42.23
2023-06-30T10:04:56.810Z,42.40
2023-06-30T10:05:56.920Z,42.64
2023-06-30T10:06:56.953Z,42.40
2023-06-30T10:07:56.963Z,42.37
2023-06-30T10:08:57.011Z,42.09
2023-06-30T10:09:57.464Z,42.00
2023-06-30T10:10:57.175Z,42.05
2023-06-30T10:11:57.078Z,42.30
2023-06-30T10:12:57.184Z,42.12
2023-06-30T10:13:57.182Z,42.27
2023-06-30T10:14:57.241Z,42.34
2023-06-30T10:15:57.266Z,42.45
2023-06-30T10:16:57.349Z,42.28
2023-06-30T10:17:57.449Z,42.33
2023-06-30T10:18:57.419Z,42.24
2023-06-30T10:19:57.491Z,42.25
2023-06-30T10:20:57.538Z,42.35
2023-06-30T10:21:57.639Z,42.27
2023-06-30T10:22:57.676Z,42.67
2023-06-30T10:23:57.690Z,42.48
2023-06-30T10:24:57.845Z,42.40
2023-06-30T10:25:58.058Z,42.27
2023-06-30T10:26:57.897Z,42.23
2023-06-30T10:27:57.942Z,42.15
2023-06-30T10:28:58.005Z,42.01
2023-06-30T10:29:58.102Z,42.18
2023-06-30T10:30:58.143Z,42.37
2023-06-30T10:31:58.284Z,42.48
2023-06-30T10:32:58.339Z,42.57
2023-06-30T10:33:58.343Z,42.41
2023-06-30T10:34:58.540Z,42.37
2023-06-30T10:35:58.466Z,42.25
2023-06-30T10:36:58.511Z,42.26
2023-06-30T10:37:58.567Z,42.15
2023-06-30T10:38:58.585Z,42.18
2023-06-30T10:39:58.950Z,42.12
2023-06-30T10:40:58.721Z,42.13
2023-06-30T10:41:58.757Z,42.08
2023-06-30T10:42:58.765Z,42.02
2023-06-30T10:43:58.839Z,41.96
2023-06-30T10:44:58.868Z,41.95
2023-06-30T10:45:58.891Z,41.98
2023-06-30T10:46:59.072Z,41.91
2023-06-30T10:47:59.026Z,41.78
2023-06-30T10:48:58.994Z,41.86
2023-06-30T10:49:59.070Z,41.76
2023-06-30T10:50:59.106Z,41.76
2023-06-30T10:51:59.188Z,41.82
2023-06-30T10:52:59.201Z,41.76
2023-06-30T10:53:59.239Z,41.68
2023-06-30T10:54:59.494Z,41.69
2023-06-30T10:55:59.329Z,41.68
2023-06-30T10:56:59.347Z,41.48
2023-06-30T10:57:59.404Z,41.58
2023-06-30T10:58:59.441Z,41.50
2023-06-30T10:59:59.958Z,41.53
2023-06-30T11:00:59.500Z,41.49
2023-06-30T11:01:59.529Z,41.47
2023-06-30T11:02:59.743Z,41.43
2023-06-30T11:03:59.963Z,41.42
2023-06-30T11:05:00.015Z,41.36
2023-06-30T11:05:59.678Z,41.37
2023-06-30T11:06:59.765Z,41.31
2023-06-30T11:07:59.754Z,41.26
2023-06-30T11:08:59.776Z,41.21
2023-06-30T11:09:59.857Z,41.21
2023-06-30T11:10:59.865Z,41.19
2023-06-30T11:11:59.888Z,41.19
2023-06-30T11:12:59.988Z,41.19
2023-06-30T11:13:59.997Z,41.19
2023-06-30T11:15:00.105Z,41.17
2023-06-30T11:16:00.124Z,41.11
2023-06-30T11:17:00.134Z,41.07
2023-06-30T11:18:00.275Z,41.07
2023-06-30T11:19:00.403Z,41.02
2023-06-30T11:20:00.460Z,41.02
2023-06-30T11:21:00.351Z,41.00
2023-06-30T11:22:00.336Z,41.02
2023-06-30T11:23:00.357Z,40.95
2023-06-30T11:24:00.436Z,40.94
2023-06-30T11:25:00.440Z,40.89
2023-06-30T11:26:00.483Z,40.88
2023-06-30T11:27:00.504Z,40.83
2023-06-30T11:28:00.568Z,40.73
2023-06-30T11:29:00.592Z,40.67
2023-06-30T11:30:00.695Z,40.72
2023-06-30T11:31:03.743Z,40.66
2023-06-30T11:32:00.660Z,40.64
2023-06-30T11:33:00.761Z,40.63
2023-06-30T11:34:00.641Z,40.59
2023-06-30T11:35:00.643Z,40.59
2023-06-30T11:36:00.701Z,40.56
2023-06-30T11:37:00.628Z,40.48
2023-06-30T11:38:00.643Z,40.46
2023-06-30T11:39:00.599Z,40.46
2023-06-30T11:40:00.661Z,40.46
2023-06-30T11:41:00.719Z,40.38
2023-06-30T11:42:00.595Z,40.37
2023-06-30T11:43:00.586Z,40.34
2023-06-30T11:44:00.596Z,40.31
2023-06-30T11:45:00.582Z,40.31
2023-06-30T11:46:02.634Z,40.29
2023-06-30T11:47:00.773Z,40.18
2023-06-30T11:48:00.768Z,40.14
2023-06-30T11:49:00.823Z,40.08
2023-06-30T11:50:00.824Z,40.09
2023-06-30T11:51:00.868Z,40.18
2023-06-30T11:52:02.251Z,40.19
2023-06-30T11:53:00.905Z,40.09
2023-06-30T11:54:00.897Z,40.09
2023-06-30T11:55:00.957Z,40.10
2023-06-30T11:56:00.961Z,40.12
2023-06-30T11:57:00.973Z,40.13
2023-06-30T11:58:02.168Z,40.07
2023-06-30T11:59:01.008Z,40.08
2023-06-30T12:00:01.104Z,40.01
2023-06-30T12:01:01.071Z,40.01
2023-06-30T12:02:01.090Z,40.01
2023-06-30T12:03:01.216Z,40.03
2023-06-30T12:04:01.282Z,39.96
2023-06-30T12:05:01.231Z,39.93
2023-06-30T12:06:01.251Z,39.95
2023-06-30T12:07:01.247Z,39.91
2023-06-30T12:08:01.249Z,39.94
2023-06-30T12:09:01.289Z,39.92
2023-06-30T12:10:01.311Z,39.93
2023-06-30T12:11:01.327Z,39.91
2023-06-30T12:12:01.326Z,39.91
2023-06-30T12:13:01.450Z,39.84
2023-06-30T12:14:01.483Z,39.87
2023-06-30T12:15:01.442Z,39.76
2023-06-30T12:16:01.487Z,39.74
2023-06-30T12:17:01.448Z,39.78
2023-06-30T12:18:01.561Z,39.62
2023-06-30T12:19:01.477Z,39.64
2023-06-30T12:20:01.551Z,39.63
2023-06-30T12:21:01.547Z,39.63
2023-06-30T12:22:01.574Z,39.63
2023-06-30T12:23:01.602Z,39.66
2023-06-30T12:24:01.593Z,39.66
2023-06-30T12:25:01.648Z,39.62
2023-06-30T12:26:01.627Z,39.64
2023-06-30T12:27:01.681Z,39.57
2023-06-30T12:28:01.692Z,39.56
2023-06-30T12:29:01.747Z,39.54
2023-06-30T12:30:02.041Z,39.54
2023-06-30T12:31:01.758Z,39.53
2023-06-30T12:32:01.928Z,39.46
2023-06-30T12:33:02.004Z,39.47
2023-06-30T12:34:01.861Z,39.49
2023-06-30T12:35:04.149Z,39.47
2023-06-30T12:36:01.823Z,39.49
2023-06-30T12:37:01.836Z,39.49
2023-06-30T12:38:01.800Z,39.50
2023-06-30T12:39:01.848Z,39.43
2023-06-30T12:40:01.791Z,39.38
2023-06-30T12:41:01.782Z,39.39
2023-06-30T12:42:01.834Z,39.34
2023-06-30T12:43:01.760Z,39.39
2023-06-30T12:44:01.760Z,39.42
2023-06-30T12:45:01.772Z,39.35
2023-06-30T12:46:01.790Z,39.30
2023-06-30T12:47:01.750Z,39.32
2023-06-30T12:48:01.837Z,39.27
2023-06-30T12:49:01.748Z,39.25
2023-06-30T12:50:01.746Z,39.26
2023-06-30T12:51:01.752Z,39.24
2023-06-30T12:52:03.773Z,39.25
2023-06-30T12:53:01.806Z,39.21